sensor_id;sensor_type;location;lat;lon;timestamp;P1;durP1;ratioP1;P2;durP2;ratioP2
54875;SDS011;40764;48.472;8.166;2023-05-14T00:03:22;11.90;;;5.13;;
54875;SDS011;40764;48.472;8.166;2023-05-14T00:09:22;15.27;;;5.55;;
54875;SDS011;40764;48.472;8.166;2023-05-14T00:15:23;8.27;;;5.20;;
54875;SDS011;40764;48.472;8.166;2023-05-14T00:21:23;6.72;;;4.70;;
54875;SDS011;40764;48.472;8.166;2023-05-14T00:27:24;9.88;;;5.53;;
54875;SDS011;40764;48.472;8.166;2023-05-14T00:33:24;9.23;;;5.03;;
54875;SDS011;40764;48.472;8.166;2023-05-14T00:39:25;9.55;;;5.22;;
54875;SDS011;40764;48.472;8.166;2023-05-14T00:45:25;10.80;;;4.93;;
54875;SDS011;40764;48.472;8.166;2023-05-14T00:51:26;8.43;;;4.40;;
54875;SDS011;40764;48.472;8.166;2023-05-14T00:57:26;13.27;;;5.37;;
54875;SDS011;40764;48.472;8.166;2023-05-14T01:03:27;13.70;;;5.73;;
54875;SDS011;40764;48.472;8.166;2023-05-14T01:09:43;9.95;;;5.45;;
54875;SDS011;40764;48.472;8.166;2023-05-14T01:15:55;6.25;;;4.57;;
54875;SDS011;40764;48.472;8.166;2023-05-14T01:21:56;9.90;;;5.38;;
54875;SDS011;40764;48.472;8.166;2023-05-14T01:28:00;10.82;;;6.20;;
54875;SDS011;40764;48.472;8.166;2023-05-14T01:34:07;7.90;;;5.43;;
54875;SDS011;40764;48.472;8.166;2023-05-14T01:40:08;15.90;;;4.87;;
54875;SDS011;40764;48.472;8.166;2023-05-14T01:46:10;12.48;;;5.88;;
54875;SDS011;40764;48.472;8.166;2023-05-14T01:52:10;9.38;;;4.15;;
54875;SDS011;40764;48.472;8.166;2023-05-14T01:58:11;10.45;;;4.80;;
54875;SDS011;40764;48.472;8.166;2023-05-14T02:04:11;7.68;;;4.70;;
54875;SDS011;40764;48.472;8.166;2023-05-14T02:10:11;14.47;;;5.60;;
54875;SDS011;40764;48.472;8.166;2023-05-14T02:16:12;7.28;;;4.57;;
54875;SDS011;40764;48.472;8.166;2023-05-14T02:22:12;9.03;;;5.37;;
54875;SDS011;40764;48.472;8.166;2023-05-14T02:28:13;11.32;;;5.85;;
54875;SDS011;40764;48.472;8.166;2023-05-14T02:34:13;10.97;;;6.07;;
54875;SDS011;40764;48.472;8.166;2023-05-14T02:40:13;8.25;;;5.85;;
54875;SDS011;40764;48.472;8.166;2023-05-14T02:46:14;15.55;;;6.82;;
54875;SDS011;40764;48.472;8.166;2023-05-14T02:52:14;10.00;;;5.10;;
54875;SDS011;40764;48.472;8.166;2023-05-14T02:58:14;11.07;;;5.45;;
54875;SDS011;40764;48.472;8.166;2023-05-14T03:04:15;12.27;;;6.43;;
54875;SDS011;40764;48.472;8.166;2023-05-14T03:10:15;9.87;;;6.00;;
54875;SDS011;40764;48.472;8.166;2023-05-14T03:16:15;10.80;;;5.83;;
54875;SDS011;40764;48.472;8.166;2023-05-14T03:22:16;16.17;;;5.35;;
54875;SDS011;40764;48.472;8.166;2023-05-14T03:28:16;11.63;;;5.67;;
54875;SDS011;40764;48.472;8.166;2023-05-14T03:34:17;10.55;;;6.20;;
54875;SDS011;40764;48.472;8.166;2023-05-14T03:40:17;8.57;;;5.87;;
54875;SDS011;40764;48.472;8.166;2023-05-14T03:46:17;8.30;;;5.03;;
54875;SDS011;40764;48.472;8.166;2023-05-14T03:52:18;10.93;;;5.38;;
54875;SDS011;40764;48.472;8.166;2023-05-14T03:58:18;8.50;;;5.17;;
54875;SDS011;40764;48.472;8.166;2023-05-14T04:04:19;11.43;;;5.72;;
54875;SDS011;40764;48.472;8.166;2023-05-14T04:10:19;9.13;;;5.30;;
54875;SDS011;40764;48.472;8.166;2023-05-14T04:16:20;14.00;;;5.53;;
54875;SDS011;40764;48.472;8.166;2023-05-14T04:22:20;9.87;;;5.27;;
54875;SDS011;40764;48.472;8.166;2023-05-14T04:28:20;10.70;;;6.17;;
54875;SDS011;40764;48.472;8.166;2023-05-14T04:34:21;9.90;;;6.03;;
54875;SDS011;40764;48.472;8.166;2023-05-14T04:40:21;9.68;;;5.97;;
54875;SDS011;40764;48.472;8.166;2023-05-14T04:46:21;7.80;;;4.82;;
54875;SDS011;40764;48.472;8.166;2023-05-14T04:52:22;8.17;;;4.77;;
54875;SDS011;40764;48.472;8.166;2023-05-14T04:58:23;7.60;;;4.83;;
54875;SDS011;40764;48.472;8.166;2023-05-14T05:04:23;6.68;;;4.97;;
54875;SDS011;40764;48.472;8.166;2023-05-14T05:10:23;9.37;;;4.70;;
54875;SDS011;40764;48.472;8.166;2023-05-14T05:16:24;6.22;;;4.50;;
54875;SDS011;40764;48.472;8.166;2023-05-14T05:22:24;8.17;;;5.10;;
54875;SDS011;40764;48.472;8.166;2023-05-14T05:28:25;16.77;;;5.57;;
54875;SDS011;40764;48.472;8.166;2023-05-14T05:34:25;9.65;;;5.60;;
54875;SDS011;40764;48.472;8.166;2023-05-14T05:40:26;12.53;;;6.60;;
54875;SDS011;40764;48.472;8.166;2023-05-14T05:46:26;12.07;;;6.28;;
54875;SDS011;40764;48.472;8.166;2023-05-14T05:52:26;9.73;;;5.45;;
54875;SDS011;40764;48.472;8.166;2023-05-14T05:58:27;7.07;;;4.90;;
54875;SDS011;40764;48.472;8.166;2023-05-14T06:04:27;7.07;;;4.53;;
54875;SDS011;40764;48.472;8.166;2023-05-14T06:10:27;11.50;;;5.37;;
54875;SDS011;40764;48.472;8.166;2023-05-14T06:16:28;15.00;;;5.97;;
54875;SDS011;40764;48.472;8.166;2023-05-14T06:22:28;11.18;;;6.47;;
54875;SDS011;40764;48.472;8.166;2023-05-14T06:28:28;13.83;;;8.23;;
54875;SDS011;40764;48.472;8.166;2023-05-14T06:34:29;11.68;;;7.57;;
54875;SDS011;40764;48.472;8.166;2023-05-14T06:40:30;17.67;;;7.43;;
54875;SDS011;40764;48.472;8.166;2023-05-14T06:46:30;12.10;;;7.30;;
54875;SDS011;40764;48.472;8.166;2023-05-14T06:52:31;11.35;;;6.43;;
54875;SDS011;40764;48.472;8.166;2023-05-14T06:58:31;10.30;;;4.95;;
54875;SDS011;40764;48.472;8.166;2023-05-14T07:04:31;12.98;;;6.40;;
54875;SDS011;40764;48.472;8.166;2023-05-14T07:10:32;17.60;;;6.87;;
54875;SDS011;40764;48.472;8.166;2023-05-14T07:16:32;13.77;;;5.30;;
54875;SDS011;40764;48.472;8.166;2023-05-14T07:22:33;7.30;;;4.53;;
54875;SDS011;40764;48.472;8.166;2023-05-14T07:28:33;8.80;;;4.80;;
54875;SDS011;40764;48.472;8.166;2023-05-14T07:34:34;5.63;;;4.13;;
54875;SDS011;40764;48.472;8.166;2023-05-14T07:40:34;6.57;;;4.47;;
54875;SDS011;40764;48.472;8.166;2023-05-14T07:46:35;10.93;;;5.10;;
54875;SDS011;40764;48.472;8.166;2023-05-14T07:52:35;10.77;;;5.67;;
54875;SDS011;40764;48.472;8.166;2023-05-14T07:58:36;10.30;;;5.30;;
54875;SDS011;40764;48.472;8.166;2023-05-14T08:04:36;6.90;;;4.22;;
54875;SDS011;40764;48.472;8.166;2023-05-14T08:10:36;5.82;;;3.63;;
54875;SDS011;40764;48.472;8.166;2023-05-14T08:16:37;4.97;;;3.53;;
54875;SDS011;40764;48.472;8.166;2023-05-14T08:22:37;4.55;;;3.40;;
54875;SDS011;40764;48.472;8.166;2023-05-14T08:28:38;6.32;;;4.03;;
54875;SDS011;40764;48.472;8.166;2023-05-14T08:34:38;6.22;;;4.20;;
54875;SDS011;40764;48.472;8.166;2023-05-14T08:40:38;6.28;;;4.25;;
54875;SDS011;40764;48.472;8.166;2023-05-14T08:46:39;8.63;;;5.10;;
54875;SDS011;40764;48.472;8.166;2023-05-14T08:52:40;8.10;;;4.72;;
54875;SDS011;40764;48.472;8.166;2023-05-14T08:58:41;9.17;;;6.00;;
54875;SDS011;40764;48.472;8.166;2023-05-14T09:04:41;7.47;;;5.05;;
54875;SDS011;40764;48.472;8.166;2023-05-14T09:10:42;10.40;;;4.80;;
54875;SDS011;40764;48.472;8.166;2023-05-14T09:16:46;7.93;;;5.33;;
54875;SDS011;40764;48.472;8.166;2023-05-14T09:22:51;9.88;;;4.25;;
54875;SDS011;40764;48.472;8.166;2023-05-14T09:28:52;6.72;;;5.10;;
54875;SDS011;40764;48.472;8.166;2023-05-14T09:41:39;9.30;;;5.25;;
54875;SDS011;40764;48.472;8.166;2023-05-14T09:47:39;7.73;;;5.27;;
54875;SDS011;40764;48.472;8.166;2023-05-14T09:53:40;9.70;;;6.27;;
54875;SDS011;40764;48.472;8.166;2023-05-14T09:59:42;8.68;;;5.85;;
54875;SDS011;40764;48.472;8.166;2023-05-14T10:05:43;10.25;;;6.30;;
54875;SDS011;40764;48.472;8.166;2023-05-14T10:11:44;7.47;;;5.50;;
54875;SDS011;40764;48.472;8.166;2023-05-14T10:17:51;8.60;;;5.80;;
54875;SDS011;40764;48.472;8.166;2023-05-14T10:23:55;11.98;;;6.32;;
54875;SDS011;40764;48.472;8.166;2023-05-14T10:29:56;11.87;;;6.97;;
54875;SDS011;40764;48.472;8.166;2023-05-14T10:36:03;12.23;;;5.67;;
54875;SDS011;40764;48.472;8.166;2023-05-14T10:42:05;9.30;;;5.35;;
54875;SDS011;40764;48.472;8.166;2023-05-14T10:48:06;7.83;;;4.47;;
54875;SDS011;40764;48.472;8.166;2023-05-14T10:54:06;6.05;;;4.35;;
54875;SDS011;40764;48.472;8.166;2023-05-14T11:00:07;6.70;;;4.63;;
54875;SDS011;40764;48.472;8.166;2023-05-14T11:06:08;6.93;;;4.30;;
54875;SDS011;40764;48.472;8.166;2023-05-14T11:12:09;12.02;;;5.22;;
54875;SDS011;40764;48.472;8.166;2023-05-14T11:18:10;7.23;;;3.90;;
54875;SDS011;40764;48.472;8.166;2023-05-14T11:24:10;5.88;;;3.20;;
54875;SDS011;40764;48.472;8.166;2023-05-14T11:30:14;5.40;;;3.38;;
54875;SDS011;40764;48.472;8.166;2023-05-14T11:36:15;4.55;;;3.00;;
54875;SDS011;40764;48.472;8.166;2023-05-14T11:42:15;3.43;;;2.90;;
54875;SDS011;40764;48.472;8.166;2023-05-14T11:48:20;11.90;;;5.10;;
54875;SDS011;40764;48.472;8.166;2023-05-14T11:54:21;6.97;;;3.90;;
54875;SDS011;40764;48.472;8.166;2023-05-14T12:00:25;11.75;;;5.20;;
54875;SDS011;40764;48.472;8.166;2023-05-14T12:06:29;5.57;;;3.80;;
54875;SDS011;40764;48.472;8.166;2023-05-14T12:12:34;20.42;;;8.07;;
54875;SDS011;40764;48.472;8.166;2023-05-14T12:18:36;23.25;;;9.50;;
54875;SDS011;40764;48.472;8.166;2023-05-14T12:24:36;9.23;;;4.17;;
54875;SDS011;40764;48.472;8.166;2023-05-14T12:36:38;5.32;;;3.78;;
54875;SDS011;40764;48.472;8.166;2023-05-14T12:42:38;5.43;;;3.20;;
54875;SDS011;40764;48.472;8.166;2023-05-14T12:48:39;8.88;;;3.33;;
54875;SDS011;40764;48.472;8.166;2023-05-14T12:54:39;10.25;;;5.43;;
54875;SDS011;40764;48.472;8.166;2023-05-14T13:00:41;7.28;;;4.78;;
54875;SDS011;40764;48.472;8.166;2023-05-14T13:06:41;7.13;;;4.63;;
54875;SDS011;40764;48.472;8.166;2023-05-14T13:12:42;7.77;;;4.23;;
54875;SDS011;40764;48.472;8.166;2023-05-14T13:18:42;7.45;;;4.53;;
54875;SDS011;40764;48.472;8.166;2023-05-14T13:24:43;6.10;;;4.78;;
54875;SDS011;40764;48.472;8.166;2023-05-14T13:31:01;4.23;;;3.83;;
54875;SDS011;40764;48.472;8.166;2023-05-14T13:37:05;8.25;;;4.55;;
54875;SDS011;40764;48.472;8.166;2023-05-14T13:43:06;7.33;;;5.27;;
54875;SDS011;40764;48.472;8.166;2023-05-14T13:49:06;4.18;;;3.72;;
54875;SDS011;40764;48.472;8.166;2023-05-14T13:55:07;7.13;;;3.72;;
54875;SDS011;40764;48.472;8.166;2023-05-14T14:01:07;4.97;;;3.53;;
54875;SDS011;40764;48.472;8.166;2023-05-14T14:07:08;5.07;;;2.90;;
54875;SDS011;40764;48.472;8.166;2023-05-14T14:13:08;9.50;;;3.53;;
54875;SDS011;40764;48.472;8.166;2023-05-14T14:19:09;5.33;;;2.57;;
54875;SDS011;40764;48.472;8.166;2023-05-14T14:25:09;6.10;;;3.30;;
54875;SDS011;40764;48.472;8.166;2023-05-14T14:37:11;9.50;;;3.10;;
54875;SDS011;40764;48.472;8.166;2023-05-14T14:43:12;5.93;;;3.17;;
54875;SDS011;40764;48.472;8.166;2023-05-14T14:49:12;7.18;;;3.40;;
54875;SDS011;40764;48.472;8.166;2023-05-14T14:55:12;6.15;;;3.63;;
54875;SDS011;40764;48.472;8.166;2023-05-14T15:01:13;4.28;;;3.10;;
54875;SDS011;40764;48.472;8.166;2023-05-14T15:07:13;9.67;;;3.57;;
54875;SDS011;40764;48.472;8.166;2023-05-14T15:13:16;3.83;;;2.85;;
54875;SDS011;40764;48.472;8.166;2023-05-14T15:19:16;6.73;;;2.50;;
54875;SDS011;40764;48.472;8.166;2023-05-14T15:25:19;4.22;;;2.42;;
54875;SDS011;40764;48.472;8.166;2023-05-14T15:31:21;5.35;;;2.67;;
54875;SDS011;40764;48.472;8.166;2023-05-14T15:37:22;3.30;;;2.10;;
54875;SDS011;40764;48.472;8.166;2023-05-14T15:43:22;6.20;;;2.88;;
54875;SDS011;40764;48.472;8.166;2023-05-14T15:49:23;3.97;;;2.10;;
54875;SDS011;40764;48.472;8.166;2023-05-14T15:55:24;6.27;;;2.80;;
54875;SDS011;40764;48.472;8.166;2023-05-14T16:01:24;7.70;;;3.13;;
54875;SDS011;40764;48.472;8.166;2023-05-14T16:07:24;4.30;;;2.50;;
54875;SDS011;40764;48.472;8.166;2023-05-14T16:13:25;3.97;;;2.93;;
54875;SDS011;40764;48.472;8.166;2023-05-14T16:19:25;3.45;;;2.30;;
54875;SDS011;40764;48.472;8.166;2023-05-14T16:25:25;2.95;;;2.45;;
54875;SDS011;40764;48.472;8.166;2023-05-14T16:31:26;8.53;;;4.07;;
54875;SDS011;40764;48.472;8.166;2023-05-14T16:37:26;4.38;;;2.63;;
54875;SDS011;40764;48.472;8.166;2023-05-14T16:43:27;6.27;;;2.57;;
54875;SDS011;40764;48.472;8.166;2023-05-14T16:49:27;5.13;;;2.72;;
54875;SDS011;40764;48.472;8.166;2023-05-14T16:55:27;5.78;;;3.35;;
54875;SDS011;40764;48.472;8.166;2023-05-14T17:01:28;8.57;;;3.67;;
54875;SDS011;40764;48.472;8.166;2023-05-14T17:07:29;6.50;;;4.60;;
54875;SDS011;40764;48.472;8.166;2023-05-14T17:13:30;9.25;;;4.10;;
54875;SDS011;40764;48.472;8.166;2023-05-14T17:19:32;4.25;;;3.15;;
54875;SDS011;40764;48.472;8.166;2023-05-14T17:25:32;5.30;;;3.47;;
54875;SDS011;40764;48.472;8.166;2023-05-14T17:31:32;4.97;;;3.37;;
54875;SDS011;40764;48.472;8.166;2023-05-14T17:37:33;7.10;;;3.93;;
54875;SDS011;40764;48.472;8.166;2023-05-14T17:43:35;8.45;;;3.40;;
54875;SDS011;40764;48.472;8.166;2023-05-14T17:49:35;5.33;;;3.80;;
54875;SDS011;40764;48.472;8.166;2023-05-14T17:55:36;11.98;;;3.67;;
54875;SDS011;40764;48.472;8.166;2023-05-14T18:01:42;6.43;;;4.35;;
54875;SDS011;40764;48.472;8.166;2023-05-14T18:07:42;5.90;;;3.97;;
54875;SDS011;40764;48.472;8.166;2023-05-14T18:13:43;7.47;;;4.53;;
54875;SDS011;40764;48.472;8.166;2023-05-14T18:19:43;7.32;;;3.92;;
54875;SDS011;40764;48.472;8.166;2023-05-14T18:25:44;8.70;;;4.82;;
54875;SDS011;40764;48.472;8.166;2023-05-14T18:31:44;9.77;;;5.27;;
54875;SDS011;40764;48.472;8.166;2023-05-14T18:37:44;9.00;;;5.25;;
54875;SDS011;40764;48.472;8.166;2023-05-14T18:43:45;14.70;;;5.32;;
54875;SDS011;40764;48.472;8.166;2023-05-14T18:49:45;10.48;;;4.95;;
54875;SDS011;40764;48.472;8.166;2023-05-14T18:55:46;10.73;;;4.93;;
54875;SDS011;40764;48.472;8.166;2023-05-14T19:01:46;7.83;;;4.93;;
54875;SDS011;40764;48.472;8.166;2023-05-14T19:07:46;6.20;;;4.25;;
54875;SDS011;40764;48.472;8.166;2023-05-14T19:13:48;9.43;;;5.45;;
54875;SDS011;40764;48.472;8.166;2023-05-14T19:19:48;9.97;;;5.43;;
54875;SDS011;40764;48.472;8.166;2023-05-14T19:25:49;8.83;;;5.43;;
54875;SDS011;40764;48.472;8.166;2023-05-14T19:31:49;13.30;;;6.27;;
54875;SDS011;40764;48.472;8.166;2023-05-14T19:37:50;8.73;;;5.07;;
54875;SDS011;40764;48.472;8.166;2023-05-14T19:43:50;10.73;;;5.63;;
54875;SDS011;40764;48.472;8.166;2023-05-14T19:49:51;14.33;;;5.57;;
54875;SDS011;40764;48.472;8.166;2023-05-14T19:55:51;12.77;;;5.38;;
54875;SDS011;40764;48.472;8.166;2023-05-14T20:01:51;10.25;;;6.43;;
54875;SDS011;40764;48.472;8.166;2023-05-14T20:07:53;11.52;;;5.80;;
54875;SDS011;40764;48.472;8.166;2023-05-14T20:13:54;9.40;;;6.00;;
54875;SDS011;40764;48.472;8.166;2023-05-14T20:19:55;8.05;;;5.95;;
54875;SDS011;40764;48.472;8.166;2023-05-14T20:25:55;12.20;;;6.33;;
54875;SDS011;40764;48.472;8.166;2023-05-14T20:31:55;7.50;;;5.87;;
54875;SDS011;40764;48.472;8.166;2023-05-14T20:37:56;10.50;;;6.10;;
54875;SDS011;40764;48.472;8.166;2023-05-14T20:43:56;11.13;;;6.53;;
54875;SDS011;40764;48.472;8.166;2023-05-14T20:49:57;10.95;;;6.35;;
54875;SDS011;40764;48.472;8.166;2023-05-14T20:55:57;10.80;;;5.40;;
54875;SDS011;40764;48.472;8.166;2023-05-14T21:02:00;10.48;;;6.75;;
54875;SDS011;40764;48.472;8.166;2023-05-14T21:08:00;12.43;;;6.32;;
54875;SDS011;40764;48.472;8.166;2023-05-14T21:14:00;14.32;;;6.88;;
54875;SDS011;40764;48.472;8.166;2023-05-14T21:20:01;14.35;;;6.47;;
54875;SDS011;40764;48.472;8.166;2023-05-14T21:26:01;8.67;;;6.07;;
54875;SDS011;40764;48.472;8.166;2023-05-14T21:32:02;17.53;;;6.57;;
54875;SDS011;40764;48.472;8.166;2023-05-14T21:38:02;18.43;;;6.43;;
54875;SDS011;40764;48.472;8.166;2023-05-14T21:44:03;10.37;;;6.17;;
54875;SDS011;40764;48.472;8.166;2023-05-14T21:50:03;10.90;;;6.13;;
54875;SDS011;40764;48.472;8.166;2023-05-14T21:56:04;10.50;;;6.45;;
54875;SDS011;40764;48.472;8.166;2023-05-14T22:02:06;9.52;;;6.22;;
54875;SDS011;40764;48.472;8.166;2023-05-14T22:08:06;9.87;;;6.20;;
54875;SDS011;40764;48.472;8.166;2023-05-14T22:14:06;10.50;;;6.03;;
54875;SDS011;40764;48.472;8.166;2023-05-14T22:20:07;10.30;;;5.97;;
54875;SDS011;40764;48.472;8.166;2023-05-14T22:26:10;10.73;;;6.78;;
54875;SDS011;40764;48.472;8.166;2023-05-14T22:32:11;9.73;;;5.73;;
54875;SDS011;40764;48.472;8.166;2023-05-14T22:38:11;10.07;;;6.20;;
54875;SDS011;40764;48.472;8.166;2023-05-14T22:44:12;13.95;;;6.57;;
54875;SDS011;40764;48.472;8.166;2023-05-14T22:50:13;9.37;;;6.17;;
54875;SDS011;40764;48.472;8.166;2023-05-14T22:56:14;11.93;;;6.23;;
54875;SDS011;40764;48.472;8.166;2023-05-14T23:02:14;18.07;;;6.37;;
54875;SDS011;40764;48.472;8.166;2023-05-14T23:08:14;11.55;;;5.90;;
54875;SDS011;40764;48.472;8.166;2023-05-14T23:14:15;10.37;;;5.73;;
54875;SDS011;40764;48.472;8.166;2023-05-14T23:20:16;17.17;;;5.93;;
54875;SDS011;40764;48.472;8.166;2023-05-14T23:26:17;9.85;;;6.47;;
54875;SDS011;40764;48.472;8.166;2023-05-14T23:32:17;10.60;;;5.67;;
54875;SDS011;40764;48.472;8.166;2023-05-14T23:38:17;11.60;;;5.50;;
54875;SDS011;40764;48.472;8.166;2023-05-14T23:44:18;11.13;;;6.47;;
54875;SDS011;40764;48.472;8.166;2023-05-14T23:50:18;16.60;;;6.20;;
54875;SDS011;40764;48.472;8.166;2023-05-14T23:56:19;9.83;;;5.47;;
